sensor_id;sensor_type;location;lat;lon;timestamp;P1;durP1;ratioP1;P2;durP2;ratioP2
62911;SDS011;49111;51.028;4.218;2022-12-18T06:48:48;26.80;;;14.95;;
62911;SDS011;49111;51.028;4.218;2022-12-18T06:51:15;31.77;;;15.48;;
62911;SDS011;49111;51.028;4.218;2022-12-18T06:53:45;28.15;;;15.80;;
62911;SDS011;49111;51.028;4.218;2022-12-18T06:56:11;27.05;;;14.95;;
62911;SDS011;49111;51.028;4.218;2022-12-18T06:58:38;28.70;;;14.18;;
62911;SDS011;49111;51.028;4.218;2022-12-18T07:01:05;29.80;;;15.23;;
62911;SDS011;49111;51.028;4.218;2022-12-18T07:03:32;22.02;;;12.57;;
62911;SDS011;49111;51.028;4.218;2022-12-18T07:05:57;30.33;;;15.35;;
62911;SDS011;49111;51.028;4.218;2022-12-18T07:08:24;30.75;;;15.55;;
62911;SDS011;49111;51.028;4.218;2022-12-18T07:10:50;30.05;;;15.27;;
62911;SDS011;49111;51.028;4.218;2022-12-18T07:13:16;29.02;;;15.60;;
62911;SDS011;49111;51.028;4.218;2022-12-18T07:15:42;31.58;;;15.43;;
62911;SDS011;49111;51.028;4.218;2022-12-18T07:18:09;32.45;;;16.83;;
62911;SDS011;49111;51.028;4.218;2022-12-18T07:20:34;25.58;;;13.73;;
62911;SDS011;49111;51.028;4.218;2022-12-18T07:23:04;34.47;;;14.75;;
62911;SDS011;49111;51.028;4.218;2022-12-18T07:25:33;28.17;;;15.27;;
62911;SDS011;49111;51.028;4.218;2022-12-18T07:27:59;34.22;;;16.10;;
62911;SDS011;49111;51.028;4.218;2022-12-18T07:30:25;30.67;;;14.40;;
62911;SDS011;49111;51.028;4.218;2022-12-18T07:32:51;30.55;;;14.90;;
62911;SDS011;49111;51.028;4.218;2022-12-18T07:35:17;23.90;;;14.52;;
62911;SDS011;49111;51.028;4.218;2022-12-18T07:37:43;27.42;;;15.95;;
62911;SDS011;49111;51.028;4.218;2022-12-18T07:40:09;25.05;;;14.10;;
62911;SDS011;49111;51.028;4.218;2022-12-18T07:42:36;26.15;;;12.20;;
62911;SDS011;49111;51.028;4.218;2022-12-18T07:45:02;26.92;;;13.57;;
62911;SDS011;49111;51.028;4.218;2022-12-18T07:47:29;28.25;;;14.07;;
62911;SDS011;49111;51.028;4.218;2022-12-18T07:49:54;30.75;;;14.90;;
62911;SDS011;49111;51.028;4.218;2022-12-18T07:52:21;23.23;;;13.38;;
62911;SDS011;49111;51.028;4.218;2022-12-18T07:54:46;24.85;;;13.45;;
62911;SDS011;49111;51.028;4.218;2022-12-18T07:57:15;26.60;;;13.55;;
62911;SDS011;49111;51.028;4.218;2022-12-18T07:59:42;24.58;;;14.23;;
62911;SDS011;49111;51.028;4.218;2022-12-18T08:02:07;24.70;;;14.07;;
62911;SDS011;49111;51.028;4.218;2022-12-18T08:04:33;24.42;;;14.50;;
62911;SDS011;49111;51.028;4.218;2022-12-18T08:06:59;22.10;;;12.27;;
62911;SDS011;49111;51.028;4.218;2022-12-18T08:09:24;24.25;;;12.90;;
62911;SDS011;49111;51.028;4.218;2022-12-18T08:11:50;21.63;;;12.45;;
62911;SDS011;49111;51.028;4.218;2022-12-18T08:14:16;25.23;;;13.45;;
62911;SDS011;49111;51.028;4.218;2022-12-18T08:16:42;24.45;;;13.90;;
62911;SDS011;49111;51.028;4.218;2022-12-18T08:19:07;27.70;;;16.08;;
62911;SDS011;49111;51.028;4.218;2022-12-18T08:21:35;23.25;;;12.65;;
62911;SDS011;49111;51.028;4.218;2022-12-18T08:24:01;28.63;;;14.27;;
62911;SDS011;49111;51.028;4.218;2022-12-18T08:26:28;25.40;;;14.55;;
62911;SDS011;49111;51.028;4.218;2022-12-18T08:28:56;28.88;;;15.65;;
62911;SDS011;49111;51.028;4.218;2022-12-18T08:31:23;34.45;;;17.75;;
62911;SDS011;49111;51.028;4.218;2022-12-18T08:33:51;32.40;;;16.02;;
62911;SDS011;49111;51.028;4.218;2022-12-18T08:36:18;25.17;;;14.73;;
62911;SDS011;49111;51.028;4.218;2022-12-18T08:38:45;27.35;;;14.60;;
62911;SDS011;49111;51.028;4.218;2022-12-18T08:41:12;23.95;;;13.65;;
62911;SDS011;49111;51.028;4.218;2022-12-18T08:43:39;25.10;;;13.68;;
62911;SDS011;49111;51.028;4.218;2022-12-18T08:46:25;23.25;;;13.55;;
62911;SDS011;49111;51.028;4.218;2022-12-18T08:48:52;29.67;;;15.88;;
62911;SDS011;49111;51.028;4.218;2022-12-18T08:51:19;28.50;;;13.27;;
62911;SDS011;49111;51.028;4.218;2022-12-18T08:53:45;21.77;;;13.43;;
62911;SDS011;49111;51.028;4.218;2022-12-18T08:56:12;28.52;;;14.30;;
62911;SDS011;49111;51.028;4.218;2022-12-18T08:58:38;23.17;;;12.45;;
62911;SDS011;49111;51.028;4.218;2022-12-18T09:01:06;23.33;;;14.65;;
62911;SDS011;49111;51.028;4.218;2022-12-18T09:03:34;26.25;;;13.65;;
62911;SDS011;49111;51.028;4.218;2022-12-18T09:06:00;26.60;;;13.02;;
62911;SDS011;49111;51.028;4.218;2022-12-18T09:08:26;28.23;;;12.63;;
62911;SDS011;49111;51.028;4.218;2022-12-18T09:10:52;24.65;;;14.40;;
62911;SDS011;49111;51.028;4.218;2022-12-18T09:13:18;26.83;;;14.23;;
62911;SDS011;49111;51.028;4.218;2022-12-18T09:15:45;23.88;;;14.60;;
62911;SDS011;49111;51.028;4.218;2022-12-18T09:18:13;25.10;;;13.38;;
62911;SDS011;49111;51.028;4.218;2022-12-18T09:20:39;21.92;;;12.45;;
62911;SDS011;49111;51.028;4.218;2022-12-18T09:23:05;25.95;;;15.10;;
62911;SDS011;49111;51.028;4.218;2022-12-18T09:25:32;28.60;;;20.38;;
62911;SDS011;49111;51.028;4.218;2022-12-18T09:28:00;31.33;;;19.27;;
62911;SDS011;49111;51.028;4.218;2022-12-18T09:30:40;29.13;;;16.90;;
62911;SDS011;49111;51.028;4.218;2022-12-18T09:33:09;25.85;;;15.50;;
62911;SDS011;49111;51.028;4.218;2022-12-18T09:35:38;22.40;;;13.25;;
62911;SDS011;49111;51.028;4.218;2022-12-18T09:38:04;22.83;;;12.55;;
62911;SDS011;49111;51.028;4.218;2022-12-18T09:43:33;19.77;;;12.23;;
62911;SDS011;49111;51.028;4.218;2022-12-18T09:46:17;22.00;;;12.80;;
62911;SDS011;49111;51.028;4.218;2022-12-18T09:48:50;29.55;;;14.50;;
62911;SDS011;49111;51.028;4.218;2022-12-18T09:51:28;21.98;;;12.82;;
62911;SDS011;49111;51.028;4.218;2022-12-18T09:54:00;23.10;;;12.55;;
62911;SDS011;49111;51.028;4.218;2022-12-18T09:56:31;22.67;;;12.40;;
62911;SDS011;49111;51.028;4.218;2022-12-18T09:59:03;25.70;;;14.40;;
62911;SDS011;49111;51.028;4.218;2022-12-18T10:01:29;25.75;;;13.13;;
62911;SDS011;49111;51.028;4.218;2022-12-18T10:03:56;22.77;;;12.25;;
62911;SDS011;49111;51.028;4.218;2022-12-18T10:06:29;18.20;;;11.20;;
62911;SDS011;49111;51.028;4.218;2022-12-18T10:09:28;24.20;;;13.73;;
62911;SDS011;49111;51.028;4.218;2022-12-18T10:12:02;19.70;;;12.00;;
62911;SDS011;49111;51.028;4.218;2022-12-18T10:19:39;22.95;;;12.85;;
62911;SDS011;49111;51.028;4.218;2022-12-18T10:25:19;18.75;;;11.75;;
62911;SDS011;49111;51.028;4.218;2022-12-18T10:27:52;19.95;;;11.18;;
62911;SDS011;49111;51.028;4.218;2022-12-18T10:30:24;21.00;;;11.33;;
62911;SDS011;49111;51.028;4.218;2022-12-18T10:32:51;20.10;;;11.70;;
62911;SDS011;49111;51.028;4.218;2022-12-18T10:35:20;19.30;;;10.38;;
62911;SDS011;49111;51.028;4.218;2022-12-18T10:38:07;20.25;;;11.15;;
62911;SDS011;49111;51.028;4.218;2022-12-18T10:40:56;23.80;;;12.13;;
62911;SDS011;49111;51.028;4.218;2022-12-18T10:43:43;20.65;;;11.75;;
62911;SDS011;49111;51.028;4.218;2022-12-18T10:48:39;23.92;;;12.23;;
62911;SDS011;49111;51.028;4.218;2022-12-18T10:51:20;21.90;;;14.02;;
62911;SDS011;49111;51.028;4.218;2022-12-18T10:53:57;23.65;;;13.63;;
62911;SDS011;49111;51.028;4.218;2022-12-18T10:56:45;22.15;;;12.57;;
62911;SDS011;49111;51.028;4.218;2022-12-18T10:59:15;18.42;;;11.00;;
62911;SDS011;49111;51.028;4.218;2022-12-18T11:01:52;18.90;;;11.38;;
62911;SDS011;49111;51.028;4.218;2022-12-18T11:04:30;22.08;;;12.27;;
62911;SDS011;49111;51.028;4.218;2022-12-18T11:07:07;20.08;;;11.88;;
62911;SDS011;49111;51.028;4.218;2022-12-18T11:09:35;20.98;;;12.82;;
62911;SDS011;49111;51.028;4.218;2022-12-18T11:12:16;17.55;;;11.88;;
62911;SDS011;49111;51.028;4.218;2022-12-18T11:14:46;22.10;;;11.18;;
62911;SDS011;49111;51.028;4.218;2022-12-18T11:19:59;20.35;;;10.90;;
62911;SDS011;49111;51.028;4.218;2022-12-18T11:22:31;18.00;;;11.10;;
62911;SDS011;49111;51.028;4.218;2022-12-18T11:25:33;22.70;;;11.88;;
62911;SDS011;49111;51.028;4.218;2022-12-18T11:28:02;17.80;;;10.20;;
62911;SDS011;49111;51.028;4.218;2022-12-18T11:30:31;21.10;;;11.57;;
62911;SDS011;49111;51.028;4.218;2022-12-18T11:35:39;15.55;;;9.95;;
62911;SDS011;49111;51.028;4.218;2022-12-18T11:38:35;17.42;;;11.15;;
62911;SDS011;49111;51.028;4.218;2022-12-18T11:44:14;20.13;;;11.55;;
62911;SDS011;49111;51.028;4.218;2022-12-18T11:46:51;20.48;;;11.38;;
62911;SDS011;49111;51.028;4.218;2022-12-18T11:49:26;18.52;;;11.02;;
62911;SDS011;49111;51.028;4.218;2022-12-18T11:54:58;22.08;;;11.52;;
62911;SDS011;49111;51.028;4.218;2022-12-18T11:57:30;18.83;;;11.20;;
62911;SDS011;49111;51.028;4.218;2022-12-18T12:00:19;22.40;;;12.18;;
62911;SDS011;49111;51.028;4.218;2022-12-18T12:06:37;19.33;;;11.45;;
62911;SDS011;49111;51.028;4.218;2022-12-18T12:17:22;21.48;;;13.63;;
62911;SDS011;49111;51.028;4.218;2022-12-18T12:22:37;25.23;;;12.63;;
62911;SDS011;49111;51.028;4.218;2022-12-18T12:31:20;20.30;;;11.90;;
62911;SDS011;49111;51.028;4.218;2022-12-18T12:39:38;20.65;;;12.95;;
62911;SDS011;49111;51.028;4.218;2022-12-18T12:42:19;25.25;;;13.10;;
62911;SDS011;49111;51.028;4.218;2022-12-18T12:45:13;22.13;;;13.73;;
62911;SDS011;49111;51.028;4.218;2022-12-18T12:47:52;21.73;;;12.80;;
62911;SDS011;49111;51.028;4.218;2022-12-18T12:50:20;22.80;;;12.60;;
62911;SDS011;49111;51.028;4.218;2022-12-18T12:52:54;20.52;;;12.65;;
62911;SDS011;49111;51.028;4.218;2022-12-18T12:55:23;20.38;;;12.20;;
62911;SDS011;49111;51.028;4.218;2022-12-18T12:57:57;22.08;;;12.98;;
62911;SDS011;49111;51.028;4.218;2022-12-18T13:00:50;19.25;;;12.90;;
62911;SDS011;49111;51.028;4.218;2022-12-18T13:03:44;24.30;;;14.20;;
62911;SDS011;49111;51.028;4.218;2022-12-18T13:11:40;24.50;;;13.95;;
62911;SDS011;49111;51.028;4.218;2022-12-18T13:17:17;19.92;;;13.77;;
62911;SDS011;49111;51.028;4.218;2022-12-18T13:20:13;22.23;;;12.77;;
62911;SDS011;49111;51.028;4.218;2022-12-18T13:22:42;20.55;;;14.13;;
62911;SDS011;49111;51.028;4.218;2022-12-18T13:25:29;21.65;;;12.85;;
62911;SDS011;49111;51.028;4.218;2022-12-18T13:28:13;22.90;;;13.37;;
62911;SDS011;49111;51.028;4.218;2022-12-18T13:38:22;23.30;;;14.02;;
62911;SDS011;49111;51.028;4.218;2022-12-18T13:46:02;25.85;;;14.80;;
62911;SDS011;49111;51.028;4.218;2022-12-18T13:48:35;24.92;;;13.93;;
62911;SDS011;49111;51.028;4.218;2022-12-18T13:53:35;25.30;;;15.30;;
62911;SDS011;49111;51.028;4.218;2022-12-18T13:56:02;24.95;;;14.73;;
62911;SDS011;49111;51.028;4.218;2022-12-18T13:58:28;25.58;;;15.70;;
62911;SDS011;49111;51.028;4.218;2022-12-18T14:00:54;25.25;;;14.70;;
62911;SDS011;49111;51.028;4.218;2022-12-18T14:03:24;24.58;;;15.30;;
62911;SDS011;49111;51.028;4.218;2022-12-18T14:05:55;24.70;;;15.15;;
62911;SDS011;49111;51.028;4.218;2022-12-18T14:08:25;23.85;;;14.82;;
62911;SDS011;49111;51.028;4.218;2022-12-18T14:10:57;24.45;;;15.30;;
62911;SDS011;49111;51.028;4.218;2022-12-18T14:13:26;25.98;;;15.07;;
62911;SDS011;49111;51.028;4.218;2022-12-18T14:15:55;24.93;;;12.77;;
62911;SDS011;49111;51.028;4.218;2022-12-18T14:20:48;23.13;;;13.10;;
62911;SDS011;49111;51.028;4.218;2022-12-18T14:26:01;25.05;;;13.82;;
62911;SDS011;49111;51.028;4.218;2022-12-18T14:28:28;24.33;;;13.45;;
62911;SDS011;49111;51.028;4.218;2022-12-18T14:30:54;24.83;;;13.25;;
62911;SDS011;49111;51.028;4.218;2022-12-18T14:33:25;24.77;;;13.88;;
62911;SDS011;49111;51.028;4.218;2022-12-18T14:36:04;26.17;;;13.13;;
62911;SDS011;49111;51.028;4.218;2022-12-18T14:38:37;24.27;;;14.50;;
62911;SDS011;49111;51.028;4.218;2022-12-18T14:41:11;29.33;;;17.42;;
62911;SDS011;49111;51.028;4.218;2022-12-18T14:43:39;24.67;;;15.55;;
62911;SDS011;49111;51.028;4.218;2022-12-18T14:52:03;29.70;;;16.38;;
62911;SDS011;49111;51.028;4.218;2022-12-18T14:54:31;24.52;;;15.25;;
62911;SDS011;49111;51.028;4.218;2022-12-18T14:57:05;33.90;;;18.05;;
62911;SDS011;49111;51.028;4.218;2022-12-18T14:59:51;32.17;;;18.45;;
62911;SDS011;49111;51.028;4.218;2022-12-18T15:02:23;28.42;;;18.42;;
62911;SDS011;49111;51.028;4.218;2022-12-18T15:04:59;27.92;;;17.75;;
62911;SDS011;49111;51.028;4.218;2022-12-18T15:07:26;37.70;;;22.38;;
62911;SDS011;49111;51.028;4.218;2022-12-18T15:12:41;30.38;;;16.95;;
62911;SDS011;49111;51.028;4.218;2022-12-18T15:20:46;38.88;;;23.83;;
62911;SDS011;49111;51.028;4.218;2022-12-18T15:26:02;30.75;;;18.48;;
62911;SDS011;49111;51.028;4.218;2022-12-18T15:28:39;29.25;;;16.60;;
62911;SDS011;49111;51.028;4.218;2022-12-18T15:33:42;26.70;;;14.48;;
62911;SDS011;49111;51.028;4.218;2022-12-18T15:36:16;28.55;;;14.70;;
62911;SDS011;49111;51.028;4.218;2022-12-18T15:38:45;29.23;;;15.77;;
62911;SDS011;49111;51.028;4.218;2022-12-18T15:41:19;27.65;;;15.23;;
62911;SDS011;49111;51.028;4.218;2022-12-18T15:43:47;31.95;;;18.33;;
62911;SDS011;49111;51.028;4.218;2022-12-18T15:46:19;31.90;;;17.50;;
62911;SDS011;49111;51.028;4.218;2022-12-18T15:48:47;36.78;;;19.67;;
62911;SDS011;49111;51.028;4.218;2022-12-18T15:51:24;40.03;;;19.27;;
62911;SDS011;49111;51.028;4.218;2022-12-18T15:53:54;36.38;;;17.95;;
62911;SDS011;49111;51.028;4.218;2022-12-18T15:56:23;34.65;;;19.02;;
62911;SDS011;49111;51.028;4.218;2022-12-18T15:59:11;52.15;;;30.60;;
62911;SDS011;49111;51.028;4.218;2022-12-18T16:01:43;41.25;;;21.38;;
62911;SDS011;49111;51.028;4.218;2022-12-18T16:04:12;33.72;;;19.83;;
62911;SDS011;49111;51.028;4.218;2022-12-18T16:06:39;34.08;;;19.13;;
62911;SDS011;49111;51.028;4.218;2022-12-18T16:09:05;32.20;;;19.35;;
62911;SDS011;49111;51.028;4.218;2022-12-18T16:11:32;27.27;;;15.95;;
62911;SDS011;49111;51.028;4.218;2022-12-18T16:16:42;32.55;;;17.73;;
62911;SDS011;49111;51.028;4.218;2022-12-18T16:19:08;30.13;;;17.23;;
62911;SDS011;49111;51.028;4.218;2022-12-18T16:21:34;25.52;;;16.15;;
62911;SDS011;49111;51.028;4.218;2022-12-18T16:24:00;27.42;;;14.75;;
62911;SDS011;49111;51.028;4.218;2022-12-18T16:26:26;28.70;;;16.52;;
62911;SDS011;49111;51.028;4.218;2022-12-18T16:28:51;27.35;;;16.17;;
62911;SDS011;49111;51.028;4.218;2022-12-18T16:31:18;25.73;;;14.57;;
62911;SDS011;49111;51.028;4.218;2022-12-18T16:33:44;29.77;;;15.27;;
62911;SDS011;49111;51.028;4.218;2022-12-18T16:36:10;30.40;;;16.15;;
62911;SDS011;49111;51.028;4.218;2022-12-18T16:38:35;29.45;;;15.23;;
62911;SDS011;49111;51.028;4.218;2022-12-18T16:41:01;29.63;;;14.73;;
62911;SDS011;49111;51.028;4.218;2022-12-18T16:43:49;27.73;;;16.55;;
62911;SDS011;49111;51.028;4.218;2022-12-18T16:46:14;33.92;;;17.13;;
62911;SDS011;49111;51.028;4.218;2022-12-18T16:48:40;26.92;;;15.80;;
62911;SDS011;49111;51.028;4.218;2022-12-18T16:51:06;33.55;;;17.40;;
62911;SDS011;49111;51.028;4.218;2022-12-18T16:53:31;34.75;;;16.92;;
62911;SDS011;49111;51.028;4.218;2022-12-18T16:55:58;28.80;;;15.50;;
62911;SDS011;49111;51.028;4.218;2022-12-18T16:58:24;31.80;;;16.48;;
62911;SDS011;49111;51.028;4.218;2022-12-18T17:00:49;30.15;;;16.17;;
62911;SDS011;49111;51.028;4.218;2022-12-18T17:03:15;25.75;;;15.30;;
62911;SDS011;49111;51.028;4.218;2022-12-18T17:05:41;28.85;;;14.77;;
62911;SDS011;49111;51.028;4.218;2022-12-18T17:08:06;32.63;;;16.10;;
62911;SDS011;49111;51.028;4.218;2022-12-18T17:10:34;32.40;;;16.00;;
62911;SDS011;49111;51.028;4.218;2022-12-18T17:13:00;28.52;;;16.60;;
62911;SDS011;49111;51.028;4.218;2022-12-18T17:15:25;25.70;;;14.95;;
62911;SDS011;49111;51.028;4.218;2022-12-18T17:17:51;29.08;;;15.90;;
62911;SDS011;49111;51.028;4.218;2022-12-18T17:20:17;29.05;;;12.85;;
62911;SDS011;49111;51.028;4.218;2022-12-18T17:22:43;31.08;;;15.20;;
62911;SDS011;49111;51.028;4.218;2022-12-18T17:25:08;25.58;;;13.73;;
62911;SDS011;49111;51.028;4.218;2022-12-18T17:27:34;31.70;;;17.50;;
62911;SDS011;49111;51.028;4.218;2022-12-18T17:30:00;32.40;;;18.52;;
62911;SDS011;49111;51.028;4.218;2022-12-18T17:32:26;26.92;;;15.32;;
62911;SDS011;49111;51.028;4.218;2022-12-18T17:34:52;30.65;;;17.70;;
62911;SDS011;49111;51.028;4.218;2022-12-18T17:37:18;31.90;;;17.48;;
62911;SDS011;49111;51.028;4.218;2022-12-18T17:39:44;27.45;;;14.30;;
62911;SDS011;49111;51.028;4.218;2022-12-18T17:42:09;31.83;;;15.27;;
62911;SDS011;49111;51.028;4.218;2022-12-18T17:44:39;31.13;;;15.93;;
62911;SDS011;49111;51.028;4.218;2022-12-18T17:47:06;34.17;;;15.73;;
62911;SDS011;49111;51.028;4.218;2022-12-18T17:49:35;26.83;;;15.45;;
62911;SDS011;49111;51.028;4.218;2022-12-18T17:52:01;31.52;;;14.73;;
62911;SDS011;49111;51.028;4.218;2022-12-18T17:54:26;28.73;;;15.15;;
62911;SDS011;49111;51.028;4.218;2022-12-18T17:56:52;31.40;;;16.05;;
62911;SDS011;49111;51.028;4.218;2022-12-18T17:59:18;32.78;;;15.25;;
62911;SDS011;49111;51.028;4.218;2022-12-18T18:01:44;26.98;;;15.30;;
62911;SDS011;49111;51.028;4.218;2022-12-18T18:04:09;27.85;;;16.38;;
62911;SDS011;49111;51.028;4.218;2022-12-18T18:06:35;29.27;;;15.23;;
62911;SDS011;49111;51.028;4.218;2022-12-18T18:09:01;32.75;;;16.88;;
62911;SDS011;49111;51.028;4.218;2022-12-18T18:11:27;30.92;;;15.13;;
62911;SDS011;49111;51.028;4.218;2022-12-18T18:14:28;32.40;;;16.33;;
62911;SDS011;49111;51.028;4.218;2022-12-18T18:16:54;34.78;;;19.27;;
62911;SDS011;49111;51.028;4.218;2022-12-18T18:19:20;35.50;;;21.38;;
62911;SDS011;49111;51.028;4.218;2022-12-18T18:21:48;30.83;;;20.00;;
62911;SDS011;49111;51.028;4.218;2022-12-18T18:24:16;34.85;;;19.77;;
62911;SDS011;49111;51.028;4.218;2022-12-18T18:26:44;26.30;;;15.82;;
62911;SDS011;49111;51.028;4.218;2022-12-18T18:29:15;27.38;;;14.15;;
62911;SDS011;49111;51.028;4.218;2022-12-18T18:31:43;29.38;;;15.02;;
62911;SDS011;49111;51.028;4.218;2022-12-18T18:34:13;29.52;;;16.63;;
62911;SDS011;49111;51.028;4.218;2022-12-18T18:36:40;35.75;;;17.60;;
62911;SDS011;49111;51.028;4.218;2022-12-18T18:39:07;36.20;;;18.75;;
62911;SDS011;49111;51.028;4.218;2022-12-18T18:41:33;31.42;;;17.35;;
62911;SDS011;49111;51.028;4.218;2022-12-18T18:43:59;32.30;;;17.90;;
62911;SDS011;49111;51.028;4.218;2022-12-18T18:46:25;32.28;;;16.20;;
62911;SDS011;49111;51.028;4.218;2022-12-18T18:48:51;32.45;;;19.90;;
62911;SDS011;49111;51.028;4.218;2022-12-18T18:51:18;41.80;;;20.50;;
62911;SDS011;49111;51.028;4.218;2022-12-18T18:53:45;38.25;;;22.30;;
62911;SDS011;49111;51.028;4.218;2022-12-18T18:56:13;39.17;;;20.67;;
62911;SDS011;49111;51.028;4.218;2022-12-18T18:58:40;29.95;;;16.50;;
62911;SDS011;49111;51.028;4.218;2022-12-18T19:01:07;25.98;;;15.30;;
62911;SDS011;49111;51.028;4.218;2022-12-18T19:03:44;28.65;;;14.90;;
62911;SDS011;49111;51.028;4.218;2022-12-18T19:06:12;30.88;;;15.63;;
62911;SDS011;49111;51.028;4.218;2022-12-18T19:08:41;31.90;;;16.35;;
62911;SDS011;49111;51.028;4.218;2022-12-18T19:11:07;29.42;;;15.77;;
62911;SDS011;49111;51.028;4.218;2022-12-18T19:13:55;29.80;;;14.82;;
62911;SDS011;49111;51.028;4.218;2022-12-18T19:16:22;29.20;;;16.90;;
62911;SDS011;49111;51.028;4.218;2022-12-18T19:18:48;29.05;;;15.98;;
62911;SDS011;49111;51.028;4.218;2022-12-18T19:24:17;30.50;;;15.68;;
